sensor_id;sensor_type;location;lat;lon;timestamp;temperature;humidity
27823;DHT22;29019;47.630;8.262;2023-04-06T00:02:27;19.70;30.00
27823;DHT22;29019;47.630;8.262;2023-04-06T00:06:27;19.70;30.00
27823;DHT22;29019;47.630;8.262;2023-04-06T00:10:28;19.70;30.00
27823;DHT22;29019;47.630;8.262;2023-04-06T00:14:29;19.60;30.00
27823;DHT22;29019;47.630;8.262;2023-04-06T00:18:29;19.60;30.00
27823;DHT22;29019;47.630;8.262;2023-04-06T00:22:30;19.60;30.00
27823;DHT22;29019;47.630;8.262;2023-04-06T00:26:30;19.60;30.00
27823;DHT22;29019;47.630;8.262;2023-04-06T00:30:31;19.60;30.00
27823;DHT22;29019;47.630;8.262;2023-04-06T00:34:31;19.60;30.00
27823;DHT22;29019;47.630;8.262;2023-04-06T00:38:32;19.50;30.00
27823;DHT22;29019;47.630;8.262;2023-04-06T00:42:32;19.50;30.00
27823;DHT22;29019;47.630;8.262;2023-04-06T00:46:33;19.50;30.00
27823;DHT22;29019;47.630;8.262;2023-04-06T00:50:33;19.50;30.00
27823;DHT22;29019;47.630;8.262;2023-04-06T00:54:33;19.50;30.00
27823;DHT22;29019;47.630;8.262;2023-04-06T00:58:34;19.40;30.00
27823;DHT22;29019;47.630;8.262;2023-04-06T01:02:38;19.40;29.90
27823;DHT22;29019;47.630;8.262;2023-04-06T01:06:38;19.40;30.00
27823;DHT22;29019;47.630;8.262;2023-04-06T01:10:39;19.40;30.00
27823;DHT22;29019;47.630;8.262;2023-04-06T01:14:39;19.40;30.00
27823;DHT22;29019;47.630;8.262;2023-04-06T01:18:40;19.40;30.00
27823;DHT22;29019;47.630;8.262;2023-04-06T01:22:42;19.40;30.00
27823;DHT22;29019;47.630;8.262;2023-04-06T01:26:43;19.30;30.00
27823;DHT22;29019;47.630;8.262;2023-04-06T01:30:43;19.30;29.90
27823;DHT22;29019;47.630;8.262;2023-04-06T01:34:43;19.30;30.00
27823;DHT22;29019;47.630;8.262;2023-04-06T01:38:44;19.30;30.00
27823;DHT22;29019;47.630;8.262;2023-04-06T01:42:44;19.30;30.00
27823;DHT22;29019;47.630;8.262;2023-04-06T01:46:46;19.20;30.00
27823;DHT22;29019;47.630;8.262;2023-04-06T01:50:46;19.20;30.00
27823;DHT22;29019;47.630;8.262;2023-04-06T01:54:46;19.20;30.00
27823;DHT22;29019;47.630;8.262;2023-04-06T01:58:47;19.20;30.00
27823;DHT22;29019;47.630;8.262;2023-04-06T02:02:47;19.20;30.00
27823;DHT22;29019;47.630;8.262;2023-04-06T02:06:48;19.20;30.00
27823;DHT22;29019;47.630;8.262;2023-04-06T02:10:48;19.20;30.00
27823;DHT22;29019;47.630;8.262;2023-04-06T02:14:49;19.20;30.00
27823;DHT22;29019;47.630;8.262;2023-04-06T02:18:49;19.10;29.90
27823;DHT22;29019;47.630;8.262;2023-04-06T02:22:49;19.10;29.90
27823;DHT22;29019;47.630;8.262;2023-04-06T02:26:50;19.10;29.90
27823;DHT22;29019;47.630;8.262;2023-04-06T02:30:50;19.10;30.00
27823;DHT22;29019;47.630;8.262;2023-04-06T02:34:51;19.10;30.00
27823;DHT22;29019;47.630;8.262;2023-04-06T02:38:52;19.00;29.90
27823;DHT22;29019;47.630;8.262;2023-04-06T02:42:52;19.00;29.90
27823;DHT22;29019;47.630;8.262;2023-04-06T02:46:52;19.00;29.90
27823;DHT22;29019;47.630;8.262;2023-04-06T02:50:53;19.00;30.00
27823;DHT22;29019;47.630;8.262;2023-04-06T02:54:53;19.00;29.90
27823;DHT22;29019;47.630;8.262;2023-04-06T02:58:54;19.00;29.90
27823;DHT22;29019;47.630;8.262;2023-04-06T03:02:55;19.00;30.00
27823;DHT22;29019;47.630;8.262;2023-04-06T03:06:55;19.00;29.90
27823;DHT22;29019;47.630;8.262;2023-04-06T03:10:56;19.00;29.90
27823;DHT22;29019;47.630;8.262;2023-04-06T03:14:56;18.90;29.90
27823;DHT22;29019;47.630;8.262;2023-04-06T03:18:57;18.90;29.90
27823;DHT22;29019;47.630;8.262;2023-04-06T03:22:57;18.90;29.90
27823;DHT22;29019;47.630;8.262;2023-04-06T03:26:58;18.90;29.90
27823;DHT22;29019;47.630;8.262;2023-04-06T03:30:58;18.90;29.90
27823;DHT22;29019;47.630;8.262;2023-04-06T03:34:59;18.90;30.00
27823;DHT22;29019;47.630;8.262;2023-04-06T03:38:59;18.90;29.90
27823;DHT22;29019;47.630;8.262;2023-04-06T03:43:00;18.90;29.90
27823;DHT22;29019;47.630;8.262;2023-04-06T03:47:00;18.90;29.90
27823;DHT22;29019;47.630;8.262;2023-04-06T03:51:02;18.90;29.90
27823;DHT22;29019;47.630;8.262;2023-04-06T03:55:03;18.90;29.90
27823;DHT22;29019;47.630;8.262;2023-04-06T03:59:03;18.90;29.90
27823;DHT22;29019;47.630;8.262;2023-04-06T04:03:04;18.90;29.90
27823;DHT22;29019;47.630;8.262;2023-04-06T04:07:05;18.90;29.90
27823;DHT22;29019;47.630;8.262;2023-04-06T04:11:05;18.90;29.90
27823;DHT22;29019;47.630;8.262;2023-04-06T04:15:06;18.90;30.00
27823;DHT22;29019;47.630;8.262;2023-04-06T04:19:06;19.00;29.90
27823;DHT22;29019;47.630;8.262;2023-04-06T04:23:07;19.20;29.80
27823;DHT22;29019;47.630;8.262;2023-04-06T04:27:07;19.30;29.80
27823;DHT22;29019;47.630;8.262;2023-04-06T04:31:07;19.40;29.80
27823;DHT22;29019;47.630;8.262;2023-04-06T04:35:08;19.50;29.80
27823;DHT22;29019;47.630;8.262;2023-04-06T04:39:08;19.60;29.80
27823;DHT22;29019;47.630;8.262;2023-04-06T04:43:09;19.60;29.80
27823;DHT22;29019;47.630;8.262;2023-04-06T04:47:10;19.70;29.80
27823;DHT22;29019;47.630;8.262;2023-04-06T04:51:10;19.70;29.70
27823;DHT22;29019;47.630;8.262;2023-04-06T04:55:10;19.70;29.70
27823;DHT22;29019;47.630;8.262;2023-04-06T04:59:11;19.80;29.80
27823;DHT22;29019;47.630;8.262;2023-04-06T05:03:18;19.80;29.70
27823;DHT22;29019;47.630;8.262;2023-04-06T05:07:19;19.80;29.70
27823;DHT22;29019;47.630;8.262;2023-04-06T05:11:21;19.90;29.70
27823;DHT22;29019;47.630;8.262;2023-04-06T05:15:21;19.80;29.70
27823;DHT22;29019;47.630;8.262;2023-04-06T05:19:21;19.80;29.70
27823;DHT22;29019;47.630;8.262;2023-04-06T05:23:22;19.80;29.70
27823;DHT22;29019;47.630;8.262;2023-04-06T05:27:22;19.70;29.70
27823;DHT22;29019;47.630;8.262;2023-04-06T05:31:23;19.70;29.70
27823;DHT22;29019;47.630;8.262;2023-04-06T05:35:23;19.70;29.60
27823;DHT22;29019;47.630;8.262;2023-04-06T05:39:24;19.70;29.60
27823;DHT22;29019;47.630;8.262;2023-04-06T05:43:24;19.70;29.60
27823;DHT22;29019;47.630;8.262;2023-04-06T05:47:24;19.60;29.70
27823;DHT22;29019;47.630;8.262;2023-04-06T05:51:25;19.60;29.70
27823;DHT22;29019;47.630;8.262;2023-04-06T05:55:26;19.60;29.70
27823;DHT22;29019;47.630;8.262;2023-04-06T05:59:29;19.70;29.70
27823;DHT22;29019;47.630;8.262;2023-04-06T06:03:29;19.70;29.70
27823;DHT22;29019;47.630;8.262;2023-04-06T06:07:30;19.80;29.70
27823;DHT22;29019;47.630;8.262;2023-04-06T06:11:31;19.90;29.70
27823;DHT22;29019;47.630;8.262;2023-04-06T06:15:33;19.90;29.60
27823;DHT22;29019;47.630;8.262;2023-04-06T06:19:33;20.00;29.60
27823;DHT22;29019;47.630;8.262;2023-04-06T06:23:34;20.10;29.50
27823;DHT22;29019;47.630;8.262;2023-04-06T06:27:34;20.20;29.40
27823;DHT22;29019;47.630;8.262;2023-04-06T06:31:35;20.20;29.30
27823;DHT22;29019;47.630;8.262;2023-04-06T06:35:36;20.20;29.20
27823;DHT22;29019;47.630;8.262;2023-04-06T06:39:37;20.30;29.20
27823;DHT22;29019;47.630;8.262;2023-04-06T06:43:37;20.30;29.10
27823;DHT22;29019;47.630;8.262;2023-04-06T06:47:38;20.30;29.10
27823;DHT22;29019;47.630;8.262;2023-04-06T06:51:38;20.30;29.20
27823;DHT22;29019;47.630;8.262;2023-04-06T06:55:38;20.20;29.10
27823;DHT22;29019;47.630;8.262;2023-04-06T06:59:39;20.20;29.10
27823;DHT22;29019;47.630;8.262;2023-04-06T07:03:39;20.20;29.10
27823;DHT22;29019;47.630;8.262;2023-04-06T07:07:40;20.20;29.20
27823;DHT22;29019;47.630;8.262;2023-04-06T07:11:40;20.20;29.10
27823;DHT22;29019;47.630;8.262;2023-04-06T07:15:41;20.10;29.00
27823;DHT22;29019;47.630;8.262;2023-04-06T07:19:41;20.10;29.10
27823;DHT22;29019;47.630;8.262;2023-04-06T07:23:42;20.00;29.10
27823;DHT22;29019;47.630;8.262;2023-04-06T07:27:42;19.90;29.20
27823;DHT22;29019;47.630;8.262;2023-04-06T07:31:42;19.90;29.20
27823;DHT22;29019;47.630;8.262;2023-04-06T07:35:43;20.00;29.20
27823;DHT22;29019;47.630;8.262;2023-04-06T07:39:43;19.90;29.20
27823;DHT22;29019;47.630;8.262;2023-04-06T07:43:44;19.90;29.20
27823;DHT22;29019;47.630;8.262;2023-04-06T07:47:44;19.90;29.30
27823;DHT22;29019;47.630;8.262;2023-04-06T07:51:45;19.90;29.30
27823;DHT22;29019;47.630;8.262;2023-04-06T07:55:46;19.80;29.40
27823;DHT22;29019;47.630;8.262;2023-04-06T07:59:46;19.80;29.40
27823;DHT22;29019;47.630;8.262;2023-04-06T08:03:47;19.80;29.50
27823;DHT22;29019;47.630;8.262;2023-04-06T08:07:47;19.80;29.50
27823;DHT22;29019;47.630;8.262;2023-04-06T08:11:48;19.70;29.50
27823;DHT22;29019;47.630;8.262;2023-04-06T08:15:49;19.80;29.50
27823;DHT22;29019;47.630;8.262;2023-04-06T08:19:49;19.70;29.40
27823;DHT22;29019;47.630;8.262;2023-04-06T08:23:50;19.70;29.50
27823;DHT22;29019;47.630;8.262;2023-04-06T08:27:50;19.70;29.50
27823;DHT22;29019;47.630;8.262;2023-04-06T08:31:51;19.70;29.50
27823;DHT22;29019;47.630;8.262;2023-04-06T08:35:51;19.70;29.50
27823;DHT22;29019;47.630;8.262;2023-04-06T08:39:52;19.70;29.50
27823;DHT22;29019;47.630;8.262;2023-04-06T08:47:56;19.70;29.60
27823;DHT22;29019;47.630;8.262;2023-04-06T08:51:57;19.70;29.60
27823;DHT22;29019;47.630;8.262;2023-04-06T08:55:59;19.70;29.60
27823;DHT22;29019;47.630;8.262;2023-04-06T09:00:00;19.70;29.60
27823;DHT22;29019;47.630;8.262;2023-04-06T09:04:01;19.70;29.60
27823;DHT22;29019;47.630;8.262;2023-04-06T09:08:01;19.70;29.60
27823;DHT22;29019;47.630;8.262;2023-04-06T09:12:02;19.70;29.60
27823;DHT22;29019;47.630;8.262;2023-04-06T09:16:06;19.70;29.60
27823;DHT22;29019;47.630;8.262;2023-04-06T09:20:07;19.70;29.60
27823;DHT22;29019;47.630;8.262;2023-04-06T09:24:08;19.70;29.70
27823;DHT22;29019;47.630;8.262;2023-04-06T09:28:08;19.70;29.60
27823;DHT22;29019;47.630;8.262;2023-04-06T09:32:09;19.70;29.70
27823;DHT22;29019;47.630;8.262;2023-04-06T09:36:16;19.70;29.70
27823;DHT22;29019;47.630;8.262;2023-04-06T09:40:17;19.70;29.70
27823;DHT22;29019;47.630;8.262;2023-04-06T09:44:18;19.70;29.70
27823;DHT22;29019;47.630;8.262;2023-04-06T09:48:20;19.70;29.70
27823;DHT22;29019;47.630;8.262;2023-04-06T09:52:22;19.70;29.70
27823;DHT22;29019;47.630;8.262;2023-04-06T09:56:24;19.70;29.70
27823;DHT22;29019;47.630;8.262;2023-04-06T10:00:27;19.80;29.70
27823;DHT22;29019;47.630;8.262;2023-04-06T10:04:37;19.80;29.70
27823;DHT22;29019;47.630;8.262;2023-04-06T10:08:40;19.70;29.70
27823;DHT22;29019;47.630;8.262;2023-04-06T10:12:41;19.80;29.70
27823;DHT22;29019;47.630;8.262;2023-04-06T10:16:43;19.80;29.70
27823;DHT22;29019;47.630;8.262;2023-04-06T10:20:47;19.80;29.70
27823;DHT22;29019;47.630;8.262;2023-04-06T10:24:48;19.80;29.70
27823;DHT22;29019;47.630;8.262;2023-04-06T10:28:50;19.80;29.70
27823;DHT22;29019;47.630;8.262;2023-04-06T10:32:51;19.80;29.70
27823;DHT22;29019;47.630;8.262;2023-04-06T10:36:51;19.80;29.70
27823;DHT22;29019;47.630;8.262;2023-04-06T10:40:52;19.80;29.70
27823;DHT22;29019;47.630;8.262;2023-04-06T10:44:52;19.90;29.70
27823;DHT22;29019;47.630;8.262;2023-04-06T10:48:53;19.90;29.70
27823;DHT22;29019;47.630;8.262;2023-04-06T10:53:00;19.90;29.70
27823;DHT22;29019;47.630;8.262;2023-04-06T10:57:00;19.90;29.70
27823;DHT22;29019;47.630;8.262;2023-04-06T11:01:01;19.90;29.60
27823;DHT22;29019;47.630;8.262;2023-04-06T11:05:02;19.90;29.70
27823;DHT22;29019;47.630;8.262;2023-04-06T11:09:02;19.90;29.60
27823;DHT22;29019;47.630;8.262;2023-04-06T11:13:03;19.90;29.60
27823;DHT22;29019;47.630;8.262;2023-04-06T11:17:03;19.90;29.50
27823;DHT22;29019;47.630;8.262;2023-04-06T11:21:04;19.90;29.50
27823;DHT22;29019;47.630;8.262;2023-04-06T11:25:05;19.90;29.50
27823;DHT22;29019;47.630;8.262;2023-04-06T11:29:07;19.90;29.50
27823;DHT22;29019;47.630;8.262;2023-04-06T11:33:07;19.90;29.50
27823;DHT22;29019;47.630;8.262;2023-04-06T11:37:08;19.90;29.50
27823;DHT22;29019;47.630;8.262;2023-04-06T11:41:09;19.90;29.50
27823;DHT22;29019;47.630;8.262;2023-04-06T11:45:10;19.90;29.50
27823;DHT22;29019;47.630;8.262;2023-04-06T11:49:15;19.90;29.50
27823;DHT22;29019;47.630;8.262;2023-04-06T11:53:15;19.90;29.50
27823;DHT22;29019;47.630;8.262;2023-04-06T11:57:16;20.00;29.50
27823;DHT22;29019;47.630;8.262;2023-04-06T12:01:17;20.00;29.50
27823;DHT22;29019;47.630;8.262;2023-04-06T12:05:17;20.00;29.40
27823;DHT22;29019;47.630;8.262;2023-04-06T12:09:18;20.00;29.30
27823;DHT22;29019;47.630;8.262;2023-04-06T12:13:18;20.00;29.40
27823;DHT22;29019;47.630;8.262;2023-04-06T12:17:19;20.00;29.30
27823;DHT22;29019;47.630;8.262;2023-04-06T12:21:20;20.00;29.30
27823;DHT22;29019;47.630;8.262;2023-04-06T12:25:20;20.00;29.50
27823;DHT22;29019;47.630;8.262;2023-04-06T12:29:21;20.00;29.30
27823;DHT22;29019;47.630;8.262;2023-04-06T12:33:21;20.00;29.40
27823;DHT22;29019;47.630;8.262;2023-04-06T12:37:22;20.00;29.40
27823;DHT22;29019;47.630;8.262;2023-04-06T12:41:22;20.10;29.40
27823;DHT22;29019;47.630;8.262;2023-04-06T12:45:23;20.10;29.40
27823;DHT22;29019;47.630;8.262;2023-04-06T12:49:24;20.10;29.40
27823;DHT22;29019;47.630;8.262;2023-04-06T12:53:24;20.00;29.30
27823;DHT22;29019;47.630;8.262;2023-04-06T12:57:25;20.10;29.40
27823;DHT22;29019;47.630;8.262;2023-04-06T13:01:26;20.10;29.40
27823;DHT22;29019;47.630;8.262;2023-04-06T13:05:28;20.10;29.50
27823;DHT22;29019;47.630;8.262;2023-04-06T13:09:30;20.10;29.40
27823;DHT22;29019;47.630;8.262;2023-04-06T13:13:30;20.10;29.40
27823;DHT22;29019;47.630;8.262;2023-04-06T13:17:31;20.10;29.40
27823;DHT22;29019;47.630;8.262;2023-04-06T13:21:31;20.10;29.40
27823;DHT22;29019;47.630;8.262;2023-04-06T13:25:32;20.10;29.40
27823;DHT22;29019;47.630;8.262;2023-04-06T13:29:32;20.10;29.40
27823;DHT22;29019;47.630;8.262;2023-04-06T13:33:34;20.10;29.50
27823;DHT22;29019;47.630;8.262;2023-04-06T13:37:35;20.10;29.50
27823;DHT22;29019;47.630;8.262;2023-04-06T13:41:35;20.10;29.40
27823;DHT22;29019;47.630;8.262;2023-04-06T13:45:36;20.10;29.40
27823;DHT22;29019;47.630;8.262;2023-04-06T13:49:37;20.10;29.40
27823;DHT22;29019;47.630;8.262;2023-04-06T13:53:37;20.10;29.40
27823;DHT22;29019;47.630;8.262;2023-04-06T13:57:38;20.10;29.40
27823;DHT22;29019;47.630;8.262;2023-04-06T14:01:38;20.10;29.50
27823;DHT22;29019;47.630;8.262;2023-04-06T14:05:39;20.10;29.40
27823;DHT22;29019;47.630;8.262;2023-04-06T14:09:39;20.10;29.40
27823;DHT22;29019;47.630;8.262;2023-04-06T14:13:40;20.10;29.50
27823;DHT22;29019;47.630;8.262;2023-04-06T14:17:40;20.10;29.50
27823;DHT22;29019;47.630;8.262;2023-04-06T14:21:41;20.10;29.50
27823;DHT22;29019;47.630;8.262;2023-04-06T14:25:42;20.10;29.50
27823;DHT22;29019;47.630;8.262;2023-04-06T14:29:42;20.10;29.50
27823;DHT22;29019;47.630;8.262;2023-04-06T14:33:42;20.10;29.50
27823;DHT22;29019;47.630;8.262;2023-04-06T14:37:43;20.10;29.50
27823;DHT22;29019;47.630;8.262;2023-04-06T14:41:43;20.10;29.50
27823;DHT22;29019;47.630;8.262;2023-04-06T14:45:44;20.10;29.50
27823;DHT22;29019;47.630;8.262;2023-04-06T14:49:45;20.10;29.50
27823;DHT22;29019;47.630;8.262;2023-04-06T14:53:45;20.10;29.50
27823;DHT22;29019;47.630;8.262;2023-04-06T14:57:45;20.10;29.50
27823;DHT22;29019;47.630;8.262;2023-04-06T15:01:46;20.10;29.50
27823;DHT22;29019;47.630;8.262;2023-04-06T15:05:46;20.10;29.50
27823;DHT22;29019;47.630;8.262;2023-04-06T15:09:47;20.00;29.60
27823;DHT22;29019;47.630;8.262;2023-04-06T15:13:47;20.10;29.60
27823;DHT22;29019;47.630;8.262;2023-04-06T15:17:48;20.20;29.50
27823;DHT22;29019;47.630;8.262;2023-04-06T15:21:48;20.30;29.40
27823;DHT22;29019;47.630;8.262;2023-04-06T15:25:48;20.40;29.40
27823;DHT22;29019;47.630;8.262;2023-04-06T15:29:49;20.40;29.20
27823;DHT22;29019;47.630;8.262;2023-04-06T15:33:50;20.50;29.20
27823;DHT22;29019;47.630;8.262;2023-04-06T15:37:50;20.60;29.10
27823;DHT22;29019;47.630;8.262;2023-04-06T15:41:51;20.70;29.10
27823;DHT22;29019;47.630;8.262;2023-04-06T15:45:51;20.70;29.00
27823;DHT22;29019;47.630;8.262;2023-04-06T15:49:53;20.70;29.00
27823;DHT22;29019;47.630;8.262;2023-04-06T15:53:53;20.80;29.10
27823;DHT22;29019;47.630;8.262;2023-04-06T15:57:53;20.80;29.10
27823;DHT22;29019;47.630;8.262;2023-04-06T16:01:54;20.80;29.10
27823;DHT22;29019;47.630;8.262;2023-04-06T16:05:54;20.80;29.10
27823;DHT22;29019;47.630;8.262;2023-04-06T16:09:55;20.80;29.10
27823;DHT22;29019;47.630;8.262;2023-04-06T16:13:55;20.80;29.10
27823;DHT22;29019;47.630;8.262;2023-04-06T16:17:56;20.70;29.00
27823;DHT22;29019;47.630;8.262;2023-04-06T16:21:56;20.70;29.10
27823;DHT22;29019;47.630;8.262;2023-04-06T16:25:57;20.70;29.10
27823;DHT22;29019;47.630;8.262;2023-04-06T16:29:57;20.70;29.00
27823;DHT22;29019;47.630;8.262;2023-04-06T16:33:58;20.70;29.00
27823;DHT22;29019;47.630;8.262;2023-04-06T16:37:59;20.70;29.10
27823;DHT22;29019;47.630;8.262;2023-04-06T16:42:00;20.70;29.10
27823;DHT22;29019;47.630;8.262;2023-04-06T16:46:01;20.60;29.10
27823;DHT22;29019;47.630;8.262;2023-04-06T16:50:02;20.60;29.50
27823;DHT22;29019;47.630;8.262;2023-04-06T16:54:02;20.60;29.10
27823;DHT22;29019;47.630;8.262;2023-04-06T16:58:03;20.60;29.50
27823;DHT22;29019;47.630;8.262;2023-04-06T17:02:03;20.60;29.10
27823;DHT22;29019;47.630;8.262;2023-04-06T17:06:04;20.60;29.20
27823;DHT22;29019;47.630;8.262;2023-04-06T17:10:04;20.60;29.10
27823;DHT22;29019;47.630;8.262;2023-04-06T17:14:06;20.60;29.10
27823;DHT22;29019;47.630;8.262;2023-04-06T17:18:08;20.60;29.20
27823;DHT22;29019;47.630;8.262;2023-04-06T17:22:08;20.60;29.20
27823;DHT22;29019;47.630;8.262;2023-04-06T17:26:09;20.60;29.20
27823;DHT22;29019;47.630;8.262;2023-04-06T17:34:47;20.60;29.20
27823;DHT22;29019;47.630;8.262;2023-04-06T17:38:48;20.60;29.20
27823;DHT22;29019;47.630;8.262;2023-04-06T17:42:48;20.60;29.20
27823;DHT22;29019;47.630;8.262;2023-04-06T17:46:48;20.60;29.20
27823;DHT22;29019;47.630;8.262;2023-04-06T17:50:49;20.60;29.30
27823;DHT22;29019;47.630;8.262;2023-04-06T17:54:49;20.60;29.30
27823;DHT22;29019;47.630;8.262;2023-04-06T17:58:53;20.60;29.30
27823;DHT22;29019;47.630;8.262;2023-04-06T18:02:54;20.60;29.40
27823;DHT22;29019;47.630;8.262;2023-04-06T18:06:56;20.60;29.40
27823;DHT22;29019;47.630;8.262;2023-04-06T18:10:56;20.60;29.40
27823;DHT22;29019;47.630;8.262;2023-04-06T18:14:57;20.60;29.40
27823;DHT22;29019;47.630;8.262;2023-04-06T18:18:58;20.60;29.40
27823;DHT22;29019;47.630;8.262;2023-04-06T18:22:59;20.60;29.30
27823;DHT22;29019;47.630;8.262;2023-04-06T18:27:00;20.60;29.40
27823;DHT22;29019;47.630;8.262;2023-04-06T18:31:00;20.60;29.40
27823;DHT22;29019;47.630;8.262;2023-04-06T18:35:01;20.60;29.40
27823;DHT22;29019;47.630;8.262;2023-04-06T18:39:01;20.60;29.40
27823;DHT22;29019;47.630;8.262;2023-04-06T18:43:03;20.60;29.40
27823;DHT22;29019;47.630;8.262;2023-04-06T18:47:05;20.60;29.50
27823;DHT22;29019;47.630;8.262;2023-04-06T18:51:05;20.60;29.50
27823;DHT22;29019;47.630;8.262;2023-04-06T18:55:06;20.60;29.50
27823;DHT22;29019;47.630;8.262;2023-04-06T18:59:07;20.60;29.50
27823;DHT22;29019;47.630;8.262;2023-04-06T19:03:08;20.60;29.40
27823;DHT22;29019;47.630;8.262;2023-04-06T19:07:08;20.60;29.40
27823;DHT22;29019;47.630;8.262;2023-04-06T19:11:09;20.60;29.40
27823;DHT22;29019;47.630;8.262;2023-04-06T19:15:10;20.60;29.50
27823;DHT22;29019;47.630;8.262;2023-04-06T19:19:10;20.60;29.50
27823;DHT22;29019;47.630;8.262;2023-04-06T19:23:11;20.60;29.50
27823;DHT22;29019;47.630;8.262;2023-04-06T19:27:11;20.60;29.50
27823;DHT22;29019;47.630;8.262;2023-04-06T19:31:12;20.60;29.50
27823;DHT22;29019;47.630;8.262;2023-04-06T19:35:13;20.50;29.50
27823;DHT22;29019;47.630;8.262;2023-04-06T19:39:14;20.60;29.60
27823;DHT22;29019;47.630;8.262;2023-04-06T19:43:17;20.50;29.60
27823;DHT22;29019;47.630;8.262;2023-04-06T19:47:19;20.50;29.60
27823;DHT22;29019;47.630;8.262;2023-04-06T19:51:20;20.50;29.60
27823;DHT22;29019;47.630;8.262;2023-04-06T19:55:20;20.50;29.60
27823;DHT22;29019;47.630;8.262;2023-04-06T19:59:21;20.50;29.70
27823;DHT22;29019;47.630;8.262;2023-04-06T20:03:21;20.50;29.70
27823;DHT22;29019;47.630;8.262;2023-04-06T20:07:22;20.60;29.70
27823;DHT22;29019;47.630;8.262;2023-04-06T20:11:22;20.60;29.70
27823;DHT22;29019;47.630;8.262;2023-04-06T20:15:22;20.60;29.70
27823;DHT22;29019;47.630;8.262;2023-04-06T20:19:23;20.50;29.70
27823;DHT22;29019;47.630;8.262;2023-04-06T20:23:24;20.60;29.70
27823;DHT22;29019;47.630;8.262;2023-04-06T20:27:24;20.50;29.70
27823;DHT22;29019;47.630;8.262;2023-04-06T20:31:26;20.60;29.70
27823;DHT22;29019;47.630;8.262;2023-04-06T20:35:26;20.50;29.70
27823;DHT22;29019;47.630;8.262;2023-04-06T20:39:27;20.60;29.70
27823;DHT22;29019;47.630;8.262;2023-04-06T20:43:27;20.60;29.70
27823;DHT22;29019;47.630;8.262;2023-04-06T20:47:28;20.50;29.70
27823;DHT22;29019;47.630;8.262;2023-04-06T20:51:30;20.50;29.70
27823;DHT22;29019;47.630;8.262;2023-04-06T20:55:31;20.60;29.70
27823;DHT22;29019;47.630;8.262;2023-04-06T20:59:33;20.50;29.70
27823;DHT22;29019;47.630;8.262;2023-04-06T21:03:33;20.60;29.70
27823;DHT22;29019;47.630;8.262;2023-04-06T21:07:34;20.60;29.70
27823;DHT22;29019;47.630;8.262;2023-04-06T21:11:34;20.50;29.70
27823;DHT22;29019;47.630;8.262;2023-04-06T21:15:35;20.60;29.80
27823;DHT22;29019;47.630;8.262;2023-04-06T21:19:35;20.50;29.70
27823;DHT22;29019;47.630;8.262;2023-04-06T21:23:36;20.60;29.70
27823;DHT22;29019;47.630;8.262;2023-04-06T21:27:36;20.50;29.70
27823;DHT22;29019;47.630;8.262;2023-04-06T21:31:38;20.60;29.70
27823;DHT22;29019;47.630;8.262;2023-04-06T21:35:40;20.50;29.80
27823;DHT22;29019;47.630;8.262;2023-04-06T21:39:40;20.50;29.80
27823;DHT22;29019;47.630;8.262;2023-04-06T21:43:41;20.50;29.80
27823;DHT22;29019;47.630;8.262;2023-04-06T21:47:41;20.50;29.80
27823;DHT22;29019;47.630;8.262;2023-04-06T21:51:42;20.40;29.80
27823;DHT22;29019;47.630;8.262;2023-04-06T21:55:43;20.40;29.90
27823;DHT22;29019;47.630;8.262;2023-04-06T21:59:44;20.40;29.90
27823;DHT22;29019;47.630;8.262;2023-04-06T22:03:44;20.40;29.90
27823;DHT22;29019;47.630;8.262;2023-04-06T22:07:45;20.40;29.90
27823;DHT22;29019;47.630;8.262;2023-04-06T22:11:45;20.30;29.90
27823;DHT22;29019;47.630;8.262;2023-04-06T22:15:46;20.30;29.90
27823;DHT22;29019;47.630;8.262;2023-04-06T22:19:46;20.30;29.90
27823;DHT22;29019;47.630;8.262;2023-04-06T22:23:47;20.30;29.90
27823;DHT22;29019;47.630;8.262;2023-04-06T22:27:47;20.30;29.90
27823;DHT22;29019;47.630;8.262;2023-04-06T22:31:48;20.30;29.90
27823;DHT22;29019;47.630;8.262;2023-04-06T22:35:48;20.30;30.00
27823;DHT22;29019;47.630;8.262;2023-04-06T22:39:49;20.20;30.00
27823;DHT22;29019;47.630;8.262;2023-04-06T22:43:49;20.20;30.00
27823;DHT22;29019;47.630;8.262;2023-04-06T22:47:50;20.20;30.00
27823;DHT22;29019;47.630;8.262;2023-04-06T22:51:50;20.20;30.00
27823;DHT22;29019;47.630;8.262;2023-04-06T22:55:51;20.20;30.00
27823;DHT22;29019;47.630;8.262;2023-04-06T22:59:51;20.20;30.00
27823;DHT22;29019;47.630;8.262;2023-04-06T23:03:51;20.10;30.00
27823;DHT22;29019;47.630;8.262;2023-04-06T23:07:52;20.10;30.00
27823;DHT22;29019;47.630;8.262;2023-04-06T23:11:52;20.10;30.00
27823;DHT22;29019;47.630;8.262;2023-04-06T23:15:53;20.10;30.00
27823;DHT22;29019;47.630;8.262;2023-04-06T23:19:53;20.10;30.00
27823;DHT22;29019;47.630;8.262;2023-04-06T23:23:54;20.10;30.10
27823;DHT22;29019;47.630;8.262;2023-04-06T23:27:54;20.00;30.10
27823;DHT22;29019;47.630;8.262;2023-04-06T23:31:55;20.00;30.10
27823;DHT22;29019;47.630;8.262;2023-04-06T23:35:55;20.00;30.10
27823;DHT22;29019;47.630;8.262;2023-04-06T23:39:56;20.00;30.10
27823;DHT22;29019;47.630;8.262;2023-04-06T23:43:56;20.00;30.10
27823;DHT22;29019;47.630;8.262;2023-04-06T23:47:57;19.90;30.10
27823;DHT22;29019;47.630;8.262;2023-04-06T23:51:57;20.00;30.20
27823;DHT22;29019;47.630;8.262;2023-04-06T23:55:58;19.90;30.20
27823;DHT22;29019;47.630;8.262;2023-04-06T23:59:58;19.90;30.20
